岡山グライダークラブ活動状況掲示板あなたは無料カウンター人目の訪問者です

岡山グライダークラブ
岡山市浦安南町639-1 岡南飛行場
 使用機:シャイベ式 SF25C型 ファルケ   JA2330
      ヴァレンティン式17E型 タイフーン  JA2342
 練習日:毎日曜日  クラブルーム:電話 086-265-1810
この掲示板は岡山グライダークラブの活動状況をお知らせする掲示板です。
!!!この掲示板は投稿規制をしています。!!!
クラブ関連各種情報は 岡山グライダークラブクラブルーム      を       .
  ブリーフイング情報は  岡山グライダークラブブリーフィングルーム  をご覧下さい。 .
※写真はクリックすると拡大して見ることが出来ます。
岡南飛行場へのアクセス等は 岡南飛行場管理事務所 をご覧ください。
クラブの ホームページ ができました。

 
09月22日
by OGC at 2019/9/22(日) 22:32:49 No.20190922222811  削除コメント
1024 x 768 x 101,999バイト
No.1

09月22日
本日の参加者
  会員      13名
  その他      0名


@本日の様子




METAR
RJOB 220000Z 07008KT 2500 SHRA BR BCFG FEW000 SCT002 BKN020 20/19 Q1013
RJOT 220000Z 06010KT 1500 R26/1900N +SHRA BR FEW000 SCT002 BKN010 21/21 Q1013
RJOA 220000Z 07016KT 9999 -SHRA BCFG FEW000 SCT002 BKN005 21/19 Q1012
TAF
RJOB 212314Z 2200/2306 08014KT 8000 -SHRA FEW003 SCT008 BKN020
     TEMPO 2200/2206 4000 -SHRA BR FEW003 BKN008 BKN020
     TEMPO 2206/2212 09018G28KT 3000 SHRA BR FEW001 BKN005 BKN008
     BECMG 2218/2221 24015KT
     TEMPO 2221/2300 24018G28KT
RJOT 212305Z 2200/2306 08011KT 9999 FEW015 SCT030 BKN050
     TEMPO 2200/2203 4000 SHRA BR FEW001 BKN005 BKN015
     BECMG 2215/2218 20012KT
     BECMG 2221/2300 26014KT
RJOA 212308Z 2200/2306 09015KT 7000 -SHRA FEW001 SCT008 BKN015
     TEMPO 2200/2202 4000 -SHRA BR BCFG FEW000 SCT003 BKN008
     TEMPO 2202/2211 3000 SHRA BR BCFG FEW000 BKN008 BKN015
     BECMG 2212/2215 15012KT
     BECMG 2215/2218 20016G27KT
     BECMG 2300/2303 27008KT


台風の影響で雨と風、フライトを諦めていると、そこは「晴れの国、岡山」、雨雲が東にそれ部分的に青空がのぞいて来ました。
急いで機体点検を済ませ1フライトした後、また、雨が少し強くなったので格納庫で待機、雨が止むと今度は風の方位が北にズレ待機、クラブルームで気象の講義を行い、本日のフライトを諦めました。

解散    14:40

1番機  12:10離陸 撤収機  12:20着陸 

SF25C JA2330 ファルケ     01Flt.0h10min  
17E   JA2342 タイフーン    00Flt.0h00min  
合計                    01Flt.0h10min

    << 戻る || ホームページ || 最新の掲示板へ